sensor_id;sensor_type;location;lat;lon;timestamp;temperature;humidity
8214;DHT22;4148;47.974;7.824;2023-08-06T00:01:02;16.80;99.90
8214;DHT22;4148;47.974;7.824;2023-08-06T00:03:30;16.70;99.90
8214;DHT22;4148;47.974;7.824;2023-08-06T00:05:58;16.50;99.90
8214;DHT22;4148;47.974;7.824;2023-08-06T00:08:25;16.40;99.90
8214;DHT22;4148;47.974;7.824;2023-08-06T00:10:53;16.30;99.90
8214;DHT22;4148;47.974;7.824;2023-08-06T00:13:23;16.20;99.90
8214;DHT22;4148;47.974;7.824;2023-08-06T00:15:50;16.20;99.90
8214;DHT22;4148;47.974;7.824;2023-08-06T00:18:18;16.10;99.90
8214;DHT22;4148;47.974;7.824;2023-08-06T00:20:46;16.10;99.90
8214;DHT22;4148;47.974;7.824;2023-08-06T00:23:14;16.10;99.90
8214;DHT22;4148;47.974;7.824;2023-08-06T00:25:42;16.10;99.90
8214;DHT22;4148;47.974;7.824;2023-08-06T00:28:10;16.00;99.90
8214;DHT22;4148;47.974;7.824;2023-08-06T00:30:39;15.90;99.90
8214;DHT22;4148;47.974;7.824;2023-08-06T00:33:07;15.90;99.90
8214;DHT22;4148;47.974;7.824;2023-08-06T00:35:35;16.00;99.90
8214;DHT22;4148;47.974;7.824;2023-08-06T00:38:02;16.00;99.90
8214;DHT22;4148;47.974;7.824;2023-08-06T00:40:30;16.10;99.90
8214;DHT22;4148;47.974;7.824;2023-08-06T00:42:58;16.10;99.90
8214;DHT22;4148;47.974;7.824;2023-08-06T00:45:26;16.00;99.90
8214;DHT22;4148;47.974;7.824;2023-08-06T00:47:57;16.00;99.90
8214;DHT22;4148;47.974;7.824;2023-08-06T00:50:26;16.00;99.90
8214;DHT22;4148;47.974;7.824;2023-08-06T00:52:55;16.10;99.90
8214;DHT22;4148;47.974;7.824;2023-08-06T00:55:24;16.10;99.90
8214;DHT22;4148;47.974;7.824;2023-08-06T00:57:52;16.20;99.90
8214;DHT22;4148;47.974;7.824;2023-08-06T01:00:23;16.10;99.90
8214;DHT22;4148;47.974;7.824;2023-08-06T01:02:52;16.10;99.90
8214;DHT22;4148;47.974;7.824;2023-08-06T01:05:22;16.00;99.90
8214;DHT22;4148;47.974;7.824;2023-08-06T01:08:01;16.20;99.90
8214;DHT22;4148;47.974;7.824;2023-08-06T01:10:44;16.30;99.90
8214;DHT22;4148;47.974;7.824;2023-08-06T01:13:19;16.30;99.90
8214;DHT22;4148;47.974;7.824;2023-08-06T01:15:54;16.30;99.90
8214;DHT22;4148;47.974;7.824;2023-08-06T01:18:23;16.30;99.90
8214;DHT22;4148;47.974;7.824;2023-08-06T01:20:53;16.40;99.90
8214;DHT22;4148;47.974;7.824;2023-08-06T01:23:20;16.40;99.90
8214;DHT22;4148;47.974;7.824;2023-08-06T01:25:55;16.40;99.90
8214;DHT22;4148;47.974;7.824;2023-08-06T01:28:30;16.50;99.90
8214;DHT22;4148;47.974;7.824;2023-08-06T01:31:02;16.60;99.90
8214;DHT22;4148;47.974;7.824;2023-08-06T01:33:34;16.60;99.90
8214;DHT22;4148;47.974;7.824;2023-08-06T01:36:04;16.70;99.90
8214;DHT22;4148;47.974;7.824;2023-08-06T01:38:32;16.70;99.90
8214;DHT22;4148;47.974;7.824;2023-08-06T01:41:00;16.70;99.90
8214;DHT22;4148;47.974;7.824;2023-08-06T01:43:28;16.70;99.90
8214;DHT22;4148;47.974;7.824;2023-08-06T01:45:56;16.80;99.90
8214;DHT22;4148;47.974;7.824;2023-08-06T01:48:24;16.80;99.90
8214;DHT22;4148;47.974;7.824;2023-08-06T01:50:52;16.90;99.90
8214;DHT22;4148;47.974;7.824;2023-08-06T01:53:21;16.80;99.90
8214;DHT22;4148;47.974;7.824;2023-08-06T01:55:49;16.90;99.90
8214;DHT22;4148;47.974;7.824;2023-08-06T01:58:17;16.90;99.90
8214;DHT22;4148;47.974;7.824;2023-08-06T02:00:45;16.90;99.90
8214;DHT22;4148;47.974;7.824;2023-08-06T02:03:13;16.90;99.90
8214;DHT22;4148;47.974;7.824;2023-08-06T02:05:40;16.90;99.90
8214;DHT22;4148;47.974;7.824;2023-08-06T02:08:08;16.90;99.90
8214;DHT22;4148;47.974;7.824;2023-08-06T02:10:37;16.70;99.90
8214;DHT22;4148;47.974;7.824;2023-08-06T02:13:05;16.70;99.90
8214;DHT22;4148;47.974;7.824;2023-08-06T02:15:33;16.50;99.90
8214;DHT22;4148;47.974;7.824;2023-08-06T02:18:01;16.50;99.90
8214;DHT22;4148;47.974;7.824;2023-08-06T02:20:29;16.40;99.90
8214;DHT22;4148;47.974;7.824;2023-08-06T02:22:57;16.30;99.90
8214;DHT22;4148;47.974;7.824;2023-08-06T02:25:25;16.30;99.90
8214;DHT22;4148;47.974;7.824;2023-08-06T02:27:54;16.20;99.90
8214;DHT22;4148;47.974;7.824;2023-08-06T02:30:22;16.10;99.90
8214;DHT22;4148;47.974;7.824;2023-08-06T02:32:49;16.10;99.90
8214;DHT22;4148;47.974;7.824;2023-08-06T02:35:17;16.10;99.90
8214;DHT22;4148;47.974;7.824;2023-08-06T02:37:45;16.00;99.90
8214;DHT22;4148;47.974;7.824;2023-08-06T02:40:13;15.90;99.90
8214;DHT22;4148;47.974;7.824;2023-08-06T02:42:41;15.90;99.90
8214;DHT22;4148;47.974;7.824;2023-08-06T02:45:10;15.80;99.90
8214;DHT22;4148;47.974;7.824;2023-08-06T02:47:38;15.70;99.90
8214;DHT22;4148;47.974;7.824;2023-08-06T02:50:07;15.60;99.90
8214;DHT22;4148;47.974;7.824;2023-08-06T02:52:35;15.60;99.90
8214;DHT22;4148;47.974;7.824;2023-08-06T02:55:05;15.50;99.90
8214;DHT22;4148;47.974;7.824;2023-08-06T02:57:33;15.50;99.90
8214;DHT22;4148;47.974;7.824;2023-08-06T03:00:01;15.40;99.90
8214;DHT22;4148;47.974;7.824;2023-08-06T03:02:31;15.40;99.90
8214;DHT22;4148;47.974;7.824;2023-08-06T03:04:59;15.30;99.90
8214;DHT22;4148;47.974;7.824;2023-08-06T03:07:27;15.20;99.90
8214;DHT22;4148;47.974;7.824;2023-08-06T03:09:55;15.10;99.90
8214;DHT22;4148;47.974;7.824;2023-08-06T03:12:22;15.00;99.90
8214;DHT22;4148;47.974;7.824;2023-08-06T03:14:50;14.80;99.90
8214;DHT22;4148;47.974;7.824;2023-08-06T03:17:18;14.80;99.90
8214;DHT22;4148;47.974;7.824;2023-08-06T03:19:47;14.70;99.90
8214;DHT22;4148;47.974;7.824;2023-08-06T03:22:15;14.60;99.90
8214;DHT22;4148;47.974;7.824;2023-08-06T03:24:43;14.50;99.90
8214;DHT22;4148;47.974;7.824;2023-08-06T03:27:11;14.50;99.90
8214;DHT22;4148;47.974;7.824;2023-08-06T03:29:39;14.40;99.90
8214;DHT22;4148;47.974;7.824;2023-08-06T03:32:07;14.40;99.90
8214;DHT22;4148;47.974;7.824;2023-08-06T03:34:35;14.40;99.90
8214;DHT22;4148;47.974;7.824;2023-08-06T03:37:05;14.30;99.90
8214;DHT22;4148;47.974;7.824;2023-08-06T03:39:33;14.30;99.90
8214;DHT22;4148;47.974;7.824;2023-08-06T03:42:01;14.30;99.90
8214;DHT22;4148;47.974;7.824;2023-08-06T03:44:28;14.30;99.90
8214;DHT22;4148;47.974;7.824;2023-08-06T03:46:57;14.20;99.90
8214;DHT22;4148;47.974;7.824;2023-08-06T03:49:25;14.20;99.90
8214;DHT22;4148;47.974;7.824;2023-08-06T03:51:53;14.30;99.90
8214;DHT22;4148;47.974;7.824;2023-08-06T03:54:22;14.20;99.90
8214;DHT22;4148;47.974;7.824;2023-08-06T03:56:50;14.20;99.90
8214;DHT22;4148;47.974;7.824;2023-08-06T03:59:18;14.20;99.90
8214;DHT22;4148;47.974;7.824;2023-08-06T04:01:46;14.20;99.90
8214;DHT22;4148;47.974;7.824;2023-08-06T04:04:13;14.20;99.90
8214;DHT22;4148;47.974;7.824;2023-08-06T04:06:41;14.20;99.90
8214;DHT22;4148;47.974;7.824;2023-08-06T04:09:09;14.20;99.90
8214;DHT22;4148;47.974;7.824;2023-08-06T04:11:38;14.10;99.90
8214;DHT22;4148;47.974;7.824;2023-08-06T04:14:06;14.10;99.90
8214;DHT22;4148;47.974;7.824;2023-08-06T04:16:34;14.10;99.90
8214;DHT22;4148;47.974;7.824;2023-08-06T04:19:02;14.00;99.90
8214;DHT22;4148;47.974;7.824;2023-08-06T04:21:30;14.00;99.90
8214;DHT22;4148;47.974;7.824;2023-08-06T04:23:58;14.00;99.90
8214;DHT22;4148;47.974;7.824;2023-08-06T04:26:26;14.10;99.90
8214;DHT22;4148;47.974;7.824;2023-08-06T04:28:55;14.00;99.90
8214;DHT22;4148;47.974;7.824;2023-08-06T04:31:23;14.00;99.90
8214;DHT22;4148;47.974;7.824;2023-08-06T04:33:50;14.10;99.90
8214;DHT22;4148;47.974;7.824;2023-08-06T04:36:18;14.00;99.90
8214;DHT22;4148;47.974;7.824;2023-08-06T04:38:46;14.10;99.90
8214;DHT22;4148;47.974;7.824;2023-08-06T04:41:14;14.10;99.90
8214;DHT22;4148;47.974;7.824;2023-08-06T04:43:42;14.10;99.90
8214;DHT22;4148;47.974;7.824;2023-08-06T04:46:11;14.10;99.90
8214;DHT22;4148;47.974;7.824;2023-08-06T04:48:39;14.10;99.90
8214;DHT22;4148;47.974;7.824;2023-08-06T04:51:07;14.10;99.90
8214;DHT22;4148;47.974;7.824;2023-08-06T04:53:35;14.00;99.90
8214;DHT22;4148;47.974;7.824;2023-08-06T04:56:03;14.00;99.90
8214;DHT22;4148;47.974;7.824;2023-08-06T04:58:31;13.90;99.90
8214;DHT22;4148;47.974;7.824;2023-08-06T05:00:59;13.90;99.90
8214;DHT22;4148;47.974;7.824;2023-08-06T05:03:28;13.90;99.90
8214;DHT22;4148;47.974;7.824;2023-08-06T05:05:56;13.90;99.90
8214;DHT22;4148;47.974;7.824;2023-08-06T05:08:23;13.80;99.90
8214;DHT22;4148;47.974;7.824;2023-08-06T05:10:51;13.80;99.90
8214;DHT22;4148;47.974;7.824;2023-08-06T05:13:19;13.80;99.90
8214;DHT22;4148;47.974;7.824;2023-08-06T05:15:47;13.70;99.90
8214;DHT22;4148;47.974;7.824;2023-08-06T05:18:15;13.70;99.90
8214;DHT22;4148;47.974;7.824;2023-08-06T05:20:44;13.60;99.90
8214;DHT22;4148;47.974;7.824;2023-08-06T05:23:12;13.50;99.90
8214;DHT22;4148;47.974;7.824;2023-08-06T05:25:40;13.50;99.90
8214;DHT22;4148;47.974;7.824;2023-08-06T05:28:08;13.50;99.90
8214;DHT22;4148;47.974;7.824;2023-08-06T05:33:07;13.50;99.90
8214;DHT22;4148;47.974;7.824;2023-08-06T05:35:35;13.50;99.90
8214;DHT22;4148;47.974;7.824;2023-08-06T05:38:04;13.40;99.90
8214;DHT22;4148;47.974;7.824;2023-08-06T05:40:33;13.40;99.90
8214;DHT22;4148;47.974;7.824;2023-08-06T05:43:01;13.40;99.90
8214;DHT22;4148;47.974;7.824;2023-08-06T05:45:29;13.40;99.90
8214;DHT22;4148;47.974;7.824;2023-08-06T05:47:57;13.40;99.90
8214;DHT22;4148;47.974;7.824;2023-08-06T05:50:25;13.40;99.90
8214;DHT22;4148;47.974;7.824;2023-08-06T05:52:53;13.40;99.90
8214;DHT22;4148;47.974;7.824;2023-08-06T05:55:22;13.40;99.90
8214;DHT22;4148;47.974;7.824;2023-08-06T05:57:50;13.30;99.90
8214;DHT22;4148;47.974;7.824;2023-08-06T06:00:20;13.30;99.90
8214;DHT22;4148;47.974;7.824;2023-08-06T06:02:48;13.30;99.90
8214;DHT22;4148;47.974;7.824;2023-08-06T06:05:16;13.30;99.90
8214;DHT22;4148;47.974;7.824;2023-08-06T06:07:44;13.30;99.90
8214;DHT22;4148;47.974;7.824;2023-08-06T06:10:11;13.40;99.90
8214;DHT22;4148;47.974;7.824;2023-08-06T06:12:41;13.40;99.90
8214;DHT22;4148;47.974;7.824;2023-08-06T06:15:09;13.40;99.90
8214;DHT22;4148;47.974;7.824;2023-08-06T06:17:38;13.50;99.90
8214;DHT22;4148;47.974;7.824;2023-08-06T06:20:07;13.70;99.90
8214;DHT22;4148;47.974;7.824;2023-08-06T06:22:35;13.70;99.90
8214;DHT22;4148;47.974;7.824;2023-08-06T06:25:03;13.60;99.90
8214;DHT22;4148;47.974;7.824;2023-08-06T06:27:31;13.60;99.90
8214;DHT22;4148;47.974;7.824;2023-08-06T06:30:00;13.60;99.90
8214;DHT22;4148;47.974;7.824;2023-08-06T06:32:28;13.60;99.90
8214;DHT22;4148;47.974;7.824;2023-08-06T06:34:56;13.60;99.90
8214;DHT22;4148;47.974;7.824;2023-08-06T06:37:25;13.50;99.90
8214;DHT22;4148;47.974;7.824;2023-08-06T06:39:53;13.50;99.90
8214;DHT22;4148;47.974;7.824;2023-08-06T06:42:20;13.40;99.90
8214;DHT22;4148;47.974;7.824;2023-08-06T06:44:49;13.50;99.90
8214;DHT22;4148;47.974;7.824;2023-08-06T06:47:18;13.50;99.90
8214;DHT22;4148;47.974;7.824;2023-08-06T06:49:46;13.50;99.90
8214;DHT22;4148;47.974;7.824;2023-08-06T06:52:14;13.50;99.90
8214;DHT22;4148;47.974;7.824;2023-08-06T06:54:42;13.50;99.90
8214;DHT22;4148;47.974;7.824;2023-08-06T06:57:10;13.40;99.90
8214;DHT22;4148;47.974;7.824;2023-08-06T06:59:38;13.40;99.90
8214;DHT22;4148;47.974;7.824;2023-08-06T07:02:06;13.40;99.90
8214;DHT22;4148;47.974;7.824;2023-08-06T07:04:35;13.40;99.90
8214;DHT22;4148;47.974;7.824;2023-08-06T07:07:03;13.40;99.90
8214;DHT22;4148;47.974;7.824;2023-08-06T07:09:31;13.40;99.90
8214;DHT22;4148;47.974;7.824;2023-08-06T07:11:59;13.40;99.90
8214;DHT22;4148;47.974;7.824;2023-08-06T07:14:28;13.50;99.90
8214;DHT22;4148;47.974;7.824;2023-08-06T07:16:56;13.40;99.90
8214;DHT22;4148;47.974;7.824;2023-08-06T07:19:24;13.50;99.90
8214;DHT22;4148;47.974;7.824;2023-08-06T07:21:54;13.50;99.90
8214;DHT22;4148;47.974;7.824;2023-08-06T07:24:22;13.40;99.90
8214;DHT22;4148;47.974;7.824;2023-08-06T07:26:50;13.50;99.90
8214;DHT22;4148;47.974;7.824;2023-08-06T07:29:19;13.50;99.90
8214;DHT22;4148;47.974;7.824;2023-08-06T07:31:49;13.50;99.90
8214;DHT22;4148;47.974;7.824;2023-08-06T07:34:18;13.60;99.90
8214;DHT22;4148;47.974;7.824;2023-08-06T07:36:46;13.60;99.90
8214;DHT22;4148;47.974;7.824;2023-08-06T07:39:16;13.60;99.90
8214;DHT22;4148;47.974;7.824;2023-08-06T07:41:44;13.70;99.90
8214;DHT22;4148;47.974;7.824;2023-08-06T07:44:12;13.70;99.90
8214;DHT22;4148;47.974;7.824;2023-08-06T07:46:41;13.80;99.90
8214;DHT22;4148;47.974;7.824;2023-08-06T07:49:09;13.80;99.90
8214;DHT22;4148;47.974;7.824;2023-08-06T07:51:38;13.80;99.90
8214;DHT22;4148;47.974;7.824;2023-08-06T07:54:06;13.90;99.90
8214;DHT22;4148;47.974;7.824;2023-08-06T07:56:35;13.90;99.90
8214;DHT22;4148;47.974;7.824;2023-08-06T07:59:03;13.90;99.90
8214;DHT22;4148;47.974;7.824;2023-08-06T08:01:31;14.10;99.90
8214;DHT22;4148;47.974;7.824;2023-08-06T08:03:59;14.10;99.90
8214;DHT22;4148;47.974;7.824;2023-08-06T08:06:27;14.20;99.90
8214;DHT22;4148;47.974;7.824;2023-08-06T08:08:55;14.20;99.90
8214;DHT22;4148;47.974;7.824;2023-08-06T08:11:23;14.10;99.90
8214;DHT22;4148;47.974;7.824;2023-08-06T08:13:53;14.20;99.90
8214;DHT22;4148;47.974;7.824;2023-08-06T08:16:20;14.10;99.90
8214;DHT22;4148;47.974;7.824;2023-08-06T08:18:48;14.10;99.90
8214;DHT22;4148;47.974;7.824;2023-08-06T08:21:16;14.10;99.90
8214;DHT22;4148;47.974;7.824;2023-08-06T08:23:44;14.00;99.90
8214;DHT22;4148;47.974;7.824;2023-08-06T08:26:12;14.00;99.90
8214;DHT22;4148;47.974;7.824;2023-08-06T08:28:40;14.00;99.90
8214;DHT22;4148;47.974;7.824;2023-08-06T08:31:09;14.00;99.90
8214;DHT22;4148;47.974;7.824;2023-08-06T08:33:38;14.00;99.90
8214;DHT22;4148;47.974;7.824;2023-08-06T08:36:06;14.10;99.90
8214;DHT22;4148;47.974;7.824;2023-08-06T08:38:34;14.00;99.90
8214;DHT22;4148;47.974;7.824;2023-08-06T08:41:01;14.00;99.90
8214;DHT22;4148;47.974;7.824;2023-08-06T08:43:30;13.90;99.90
8214;DHT22;4148;47.974;7.824;2023-08-06T08:45:59;13.90;99.90
8214;DHT22;4148;47.974;7.824;2023-08-06T08:48:29;13.80;99.90
8214;DHT22;4148;47.974;7.824;2023-08-06T08:50:57;13.80;99.90
8214;DHT22;4148;47.974;7.824;2023-08-06T08:53:26;13.80;99.90
8214;DHT22;4148;47.974;7.824;2023-08-06T08:55:55;13.90;99.90
8214;DHT22;4148;47.974;7.824;2023-08-06T08:58:23;14.00;99.90
8214;DHT22;4148;47.974;7.824;2023-08-06T09:00:52;14.10;99.90
8214;DHT22;4148;47.974;7.824;2023-08-06T09:03:20;14.20;99.90
8214;DHT22;4148;47.974;7.824;2023-08-06T09:05:53;14.20;99.90
8214;DHT22;4148;47.974;7.824;2023-08-06T09:08:26;14.20;99.90
8214;DHT22;4148;47.974;7.824;2023-08-06T09:10:55;14.20;99.90
8214;DHT22;4148;47.974;7.824;2023-08-06T09:13:24;14.30;99.90
8214;DHT22;4148;47.974;7.824;2023-08-06T09:15:52;14.30;99.90
8214;DHT22;4148;47.974;7.824;2023-08-06T09:18:25;14.30;99.90
8214;DHT22;4148;47.974;7.824;2023-08-06T09:20:56;14.40;99.90
8214;DHT22;4148;47.974;7.824;2023-08-06T09:23:28;14.30;99.90
8214;DHT22;4148;47.974;7.824;2023-08-06T09:25:57;14.30;99.90
8214;DHT22;4148;47.974;7.824;2023-08-06T09:28:36;14.30;99.90
8214;DHT22;4148;47.974;7.824;2023-08-06T09:31:05;14.30;99.90
8214;DHT22;4148;47.974;7.824;2023-08-06T09:33:33;14.40;99.90
8214;DHT22;4148;47.974;7.824;2023-08-06T09:36:09;14.40;99.90
8214;DHT22;4148;47.974;7.824;2023-08-06T09:38:40;14.30;99.90
8214;DHT22;4148;47.974;7.824;2023-08-06T09:41:08;14.40;99.90
8214;DHT22;4148;47.974;7.824;2023-08-06T09:43:40;14.40;99.90
8214;DHT22;4148;47.974;7.824;2023-08-06T09:46:12;14.50;99.90
8214;DHT22;4148;47.974;7.824;2023-08-06T09:48:45;14.50;99.90
8214;DHT22;4148;47.974;7.824;2023-08-06T09:51:14;14.50;99.90
8214;DHT22;4148;47.974;7.824;2023-08-06T09:53:42;14.40;99.90
8214;DHT22;4148;47.974;7.824;2023-08-06T09:56:10;14.40;99.90
8214;DHT22;4148;47.974;7.824;2023-08-06T09:58:39;14.50;99.90
8214;DHT22;4148;47.974;7.824;2023-08-06T10:01:08;14.60;99.90
8214;DHT22;4148;47.974;7.824;2023-08-06T10:03:36;14.70;99.90
8214;DHT22;4148;47.974;7.824;2023-08-06T10:06:05;14.80;99.90
8214;DHT22;4148;47.974;7.824;2023-08-06T10:08:36;15.00;99.90
8214;DHT22;4148;47.974;7.824;2023-08-06T10:11:06;15.10;99.90
8214;DHT22;4148;47.974;7.824;2023-08-06T10:13:34;15.10;99.90
8214;DHT22;4148;47.974;7.824;2023-08-06T10:16:03;15.00;99.90
8214;DHT22;4148;47.974;7.824;2023-08-06T10:18:33;15.00;99.90
8214;DHT22;4148;47.974;7.824;2023-08-06T10:21:03;15.00;99.90
8214;DHT22;4148;47.974;7.824;2023-08-06T10:23:36;15.00;99.90
8214;DHT22;4148;47.974;7.824;2023-08-06T10:26:07;14.90;99.90
8214;DHT22;4148;47.974;7.824;2023-08-06T10:28:36;14.80;99.90
8214;DHT22;4148;47.974;7.824;2023-08-06T10:31:05;14.80;99.90
8214;DHT22;4148;47.974;7.824;2023-08-06T10:33:44;14.90;99.90
8214;DHT22;4148;47.974;7.824;2023-08-06T10:36:12;14.80;99.90
8214;DHT22;4148;47.974;7.824;2023-08-06T10:38:50;14.80;99.90
8214;DHT22;4148;47.974;7.824;2023-08-06T10:41:27;14.80;99.90
8214;DHT22;4148;47.974;7.824;2023-08-06T10:44:05;14.80;99.90
8214;DHT22;4148;47.974;7.824;2023-08-06T10:46:35;14.80;99.90
8214;DHT22;4148;47.974;7.824;2023-08-06T10:49:03;14.90;99.90
8214;DHT22;4148;47.974;7.824;2023-08-06T10:51:31;14.80;99.90
8214;DHT22;4148;47.974;7.824;2023-08-06T10:53:59;14.80;99.90
8214;DHT22;4148;47.974;7.824;2023-08-06T10:56:28;14.90;99.90
8214;DHT22;4148;47.974;7.824;2023-08-06T10:58:57;14.90;99.90
8214;DHT22;4148;47.974;7.824;2023-08-06T11:01:28;14.90;99.90
8214;DHT22;4148;47.974;7.824;2023-08-06T11:04:01;14.90;99.90
8214;DHT22;4148;47.974;7.824;2023-08-06T11:06:31;14.90;99.90
8214;DHT22;4148;47.974;7.824;2023-08-06T11:09:01;14.80;99.90
8214;DHT22;4148;47.974;7.824;2023-08-06T11:11:30;14.80;99.90
8214;DHT22;4148;47.974;7.824;2023-08-06T11:13:58;14.80;99.90
8214;DHT22;4148;47.974;7.824;2023-08-06T11:16:26;14.70;99.90
8214;DHT22;4148;47.974;7.824;2023-08-06T11:18:55;14.70;99.90
8214;DHT22;4148;47.974;7.824;2023-08-06T11:21:24;14.70;99.90
8214;DHT22;4148;47.974;7.824;2023-08-06T11:23:53;14.70;99.90
8214;DHT22;4148;47.974;7.824;2023-08-06T11:26:21;14.70;99.90
8214;DHT22;4148;47.974;7.824;2023-08-06T11:28:51;14.70;99.90
8214;DHT22;4148;47.974;7.824;2023-08-06T11:31:19;14.70;99.90
8214;DHT22;4148;47.974;7.824;2023-08-06T11:33:48;14.80;99.90
8214;DHT22;4148;47.974;7.824;2023-08-06T11:36:16;14.80;99.90
8214;DHT22;4148;47.974;7.824;2023-08-06T11:38:43;14.80;99.90
8214;DHT22;4148;47.974;7.824;2023-08-06T11:41:12;14.80;99.90
8214;DHT22;4148;47.974;7.824;2023-08-06T11:43:40;14.90;99.90
8214;DHT22;4148;47.974;7.824;2023-08-06T11:46:09;14.90;99.90
8214;DHT22;4148;47.974;7.824;2023-08-06T11:48:51;15.00;99.90
8214;DHT22;4148;47.974;7.824;2023-08-06T11:51:21;15.00;99.90
8214;DHT22;4148;47.974;7.824;2023-08-06T11:53:49;15.00;99.90
8214;DHT22;4148;47.974;7.824;2023-08-06T11:56:17;15.00;99.90
8214;DHT22;4148;47.974;7.824;2023-08-06T11:58:45;15.10;99.90
8214;DHT22;4148;47.974;7.824;2023-08-06T12:01:15;15.10;99.90
8214;DHT22;4148;47.974;7.824;2023-08-06T12:03:42;15.10;99.90
8214;DHT22;4148;47.974;7.824;2023-08-06T12:06:10;15.10;99.90
8214;DHT22;4148;47.974;7.824;2023-08-06T12:08:38;15.10;99.90
8214;DHT22;4148;47.974;7.824;2023-08-06T12:11:08;15.10;99.90
8214;DHT22;4148;47.974;7.824;2023-08-06T12:13:36;15.10;99.90
8214;DHT22;4148;47.974;7.824;2023-08-06T12:16:04;15.20;99.90
8214;DHT22;4148;47.974;7.824;2023-08-06T12:18:33;15.30;99.90
8214;DHT22;4148;47.974;7.824;2023-08-06T12:21:01;15.40;99.90
8214;DHT22;4148;47.974;7.824;2023-08-06T12:23:29;15.40;99.90
8214;DHT22;4148;47.974;7.824;2023-08-06T12:25:59;15.50;99.90
8214;DHT22;4148;47.974;7.824;2023-08-06T12:28:27;15.50;99.90
8214;DHT22;4148;47.974;7.824;2023-08-06T12:30:55;15.60;99.90
8214;DHT22;4148;47.974;7.824;2023-08-06T12:33:23;15.70;99.90
8214;DHT22;4148;47.974;7.824;2023-08-06T12:35:52;15.90;99.90
8214;DHT22;4148;47.974;7.824;2023-08-06T12:38:21;16.00;99.90
8214;DHT22;4148;47.974;7.824;2023-08-06T12:40:49;16.10;99.90
8214;DHT22;4148;47.974;7.824;2023-08-06T12:43:17;16.10;99.90
8214;DHT22;4148;47.974;7.824;2023-08-06T12:45:45;16.00;99.90
8214;DHT22;4148;47.974;7.824;2023-08-06T12:48:13;16.00;99.90
8214;DHT22;4148;47.974;7.824;2023-08-06T12:50:41;15.80;99.90
8214;DHT22;4148;47.974;7.824;2023-08-06T12:53:10;15.70;99.90
8214;DHT22;4148;47.974;7.824;2023-08-06T12:55:38;15.60;99.90
8214;DHT22;4148;47.974;7.824;2023-08-06T12:58:07;15.40;99.90
8214;DHT22;4148;47.974;7.824;2023-08-06T13:00:35;15.40;99.90
8214;DHT22;4148;47.974;7.824;2023-08-06T13:03:03;15.30;99.90
8214;DHT22;4148;47.974;7.824;2023-08-06T13:05:31;15.40;99.90
8214;DHT22;4148;47.974;7.824;2023-08-06T13:07:59;15.50;99.90
8214;DHT22;4148;47.974;7.824;2023-08-06T13:10:28;15.60;99.90
8214;DHT22;4148;47.974;7.824;2023-08-06T13:12:57;15.80;99.90
8214;DHT22;4148;47.974;7.824;2023-08-06T13:15:25;16.00;99.90
8214;DHT22;4148;47.974;7.824;2023-08-06T13:17:53;16.10;99.90
8214;DHT22;4148;47.974;7.824;2023-08-06T13:20:21;16.30;99.90
8214;DHT22;4148;47.974;7.824;2023-08-06T13:22:49;16.40;99.90
8214;DHT22;4148;47.974;7.824;2023-08-06T13:25:20;16.50;99.90
8214;DHT22;4148;47.974;7.824;2023-08-06T13:27:49;16.40;99.90
8214;DHT22;4148;47.974;7.824;2023-08-06T13:30:17;16.40;99.90
8214;DHT22;4148;47.974;7.824;2023-08-06T13:32:45;16.40;99.90
8214;DHT22;4148;47.974;7.824;2023-08-06T13:35:14;16.30;99.90
8214;DHT22;4148;47.974;7.824;2023-08-06T13:37:41;16.30;99.90
8214;DHT22;4148;47.974;7.824;2023-08-06T13:40:10;16.20;99.90
8214;DHT22;4148;47.974;7.824;2023-08-06T13:42:38;16.20;99.90
8214;DHT22;4148;47.974;7.824;2023-08-06T13:45:08;16.20;99.90
8214;DHT22;4148;47.974;7.824;2023-08-06T13:47:36;16.10;99.90
8214;DHT22;4148;47.974;7.824;2023-08-06T13:50:04;16.00;99.90
8214;DHT22;4148;47.974;7.824;2023-08-06T13:52:32;16.00;99.90
8214;DHT22;4148;47.974;7.824;2023-08-06T13:55:02;15.90;99.90
8214;DHT22;4148;47.974;7.824;2023-08-06T13:57:31;15.70;99.90
8214;DHT22;4148;47.974;7.824;2023-08-06T13:59:59;15.70;99.90
8214;DHT22;4148;47.974;7.824;2023-08-06T14:02:28;15.70;99.90
8214;DHT22;4148;47.974;7.824;2023-08-06T14:04:56;15.60;99.90
8214;DHT22;4148;47.974;7.824;2023-08-06T14:07:24;15.50;99.90
8214;DHT22;4148;47.974;7.824;2023-08-06T14:09:51;15.60;99.90
8214;DHT22;4148;47.974;7.824;2023-08-06T14:12:19;15.60;99.90
8214;DHT22;4148;47.974;7.824;2023-08-06T14:14:47;15.60;99.90
8214;DHT22;4148;47.974;7.824;2023-08-06T14:17:15;15.70;99.90
8214;DHT22;4148;47.974;7.824;2023-08-06T14:19:44;15.80;99.90
8214;DHT22;4148;47.974;7.824;2023-08-06T14:22:12;15.90;99.90
8214;DHT22;4148;47.974;7.824;2023-08-06T14:24:40;15.90;99.90
8214;DHT22;4148;47.974;7.824;2023-08-06T14:27:08;15.80;99.90
8214;DHT22;4148;47.974;7.824;2023-08-06T14:29:36;15.80;99.90
8214;DHT22;4148;47.974;7.824;2023-08-06T14:32:05;15.70;99.90
8214;DHT22;4148;47.974;7.824;2023-08-06T14:34:33;15.60;99.90
8214;DHT22;4148;47.974;7.824;2023-08-06T14:37:03;15.60;99.90
8214;DHT22;4148;47.974;7.824;2023-08-06T14:39:31;15.70;99.90
8214;DHT22;4148;47.974;7.824;2023-08-06T14:41:59;15.70;99.90
8214;DHT22;4148;47.974;7.824;2023-08-06T14:44:27;15.80;99.90
8214;DHT22;4148;47.974;7.824;2023-08-06T14:46:54;15.80;99.90
8214;DHT22;4148;47.974;7.824;2023-08-06T14:49:23;15.90;99.90
8214;DHT22;4148;47.974;7.824;2023-08-06T14:51:51;16.00;99.90
8214;DHT22;4148;47.974;7.824;2023-08-06T14:54:20;16.10;99.90
8214;DHT22;4148;47.974;7.824;2023-08-06T14:56:48;16.20;99.90
8214;DHT22;4148;47.974;7.824;2023-08-06T14:59:16;16.30;99.90
8214;DHT22;4148;47.974;7.824;2023-08-06T15:01:43;16.30;99.90
8214;DHT22;4148;47.974;7.824;2023-08-06T15:04:11;16.30;99.90
8214;DHT22;4148;47.974;7.824;2023-08-06T15:06:39;16.20;99.90
8214;DHT22;4148;47.974;7.824;2023-08-06T15:09:07;16.10;99.90
8214;DHT22;4148;47.974;7.824;2023-08-06T15:11:36;16.10;99.90
8214;DHT22;4148;47.974;7.824;2023-08-06T15:14:04;16.10;99.90
8214;DHT22;4148;47.974;7.824;2023-08-06T15:16:33;16.00;99.90
8214;DHT22;4148;47.974;7.824;2023-08-06T15:19:01;16.00;99.90
8214;DHT22;4148;47.974;7.824;2023-08-06T15:21:29;15.90;99.90
8214;DHT22;4148;47.974;7.824;2023-08-06T15:23:57;15.90;99.90
8214;DHT22;4148;47.974;7.824;2023-08-06T15:26:25;15.90;99.90
8214;DHT22;4148;47.974;7.824;2023-08-06T15:28:54;15.80;99.90
8214;DHT22;4148;47.974;7.824;2023-08-06T15:31:23;15.80;99.90
8214;DHT22;4148;47.974;7.824;2023-08-06T15:33:51;15.80;99.90
8214;DHT22;4148;47.974;7.824;2023-08-06T15:36:19;15.70;99.90
8214;DHT22;4148;47.974;7.824;2023-08-06T15:38:47;15.70;99.90
8214;DHT22;4148;47.974;7.824;2023-08-06T15:41:14;15.60;99.90
8214;DHT22;4148;47.974;7.824;2023-08-06T15:43:42;15.70;99.90
8214;DHT22;4148;47.974;7.824;2023-08-06T15:46:11;15.70;99.90
8214;DHT22;4148;47.974;7.824;2023-08-06T15:48:41;15.70;99.90
8214;DHT22;4148;47.974;7.824;2023-08-06T15:51:09;15.80;99.90
8214;DHT22;4148;47.974;7.824;2023-08-06T15:53:37;15.80;99.90
8214;DHT22;4148;47.974;7.824;2023-08-06T15:56:05;15.80;99.90
8214;DHT22;4148;47.974;7.824;2023-08-06T15:58:33;15.80;99.90
8214;DHT22;4148;47.974;7.824;2023-08-06T16:01:04;15.90;99.90
8214;DHT22;4148;47.974;7.824;2023-08-06T16:03:33;15.80;99.90
8214;DHT22;4148;47.974;7.824;2023-08-06T16:06:01;15.80;99.90
8214;DHT22;4148;47.974;7.824;2023-08-06T16:08:31;15.90;99.90
8214;DHT22;4148;47.974;7.824;2023-08-06T16:10:59;15.90;99.90
8214;DHT22;4148;47.974;7.824;2023-08-06T16:13:26;16.00;99.90